Time;durP1;ratioP1;P1;durP2;ratioP2;P2;SDS_P1;SDS_P2;PMS_P1;PMS_P2;Temp;Humidity;BMP_temperature;BMP_pressure;BME280_temperature;BME280_humidity;BME280_pressure;Samples;Min_cycle;Max_cycle;Signal;HPM_P1;HPM_P2
2022/11/29 00:01:22;;;;;;;;;;;-1.10;99.90;;;;;;5068264;28;19963;-78
2022/11/29 00:03:47;;;;;;;;;;;-1.20;99.90;;;;;;5069834;28;19962;-78
2022/11/29 00:06:16;;;;;;;;;;;-1.20;99.90;;;;;;5068379;28;19916;-78
2022/11/29 00:08:41;;;;;;;;;;;-1.20;99.90;;;;;;5069760;28;20302;-77
2022/11/29 00:11:08;;;;;;;;;;;-1.20;99.90;;;;;;5069904;28;19914;-77
2022/11/29 00:13:34;;;;;;;;;;;-1.20;99.90;;;;;;5067945;28;19908;-78
2022/11/29 00:16:00;;;;;;;;;;;-1.30;99.90;;;;;;5068194;28;19950;-78
2022/11/29 00:18:26;;;;;;;;;;;-1.30;99.90;;;;;;5068215;28;19961;-78
2022/11/29 00:20:51;;;;;;;;;;;-1.30;99.90;;;;;;5069392;28;19908;-77
2022/11/29 00:23:17;;;;;;;;;;;-1.30;99.90;;;;;;5069462;28;20380;-78
2022/11/29 00:25:42;;;;;;;;;;;-1.40;99.90;;;;;;5068484;28;19908;-77
2022/11/29 00:28:08;;;;;;;;;;;-1.40;99.90;;;;;;5069973;28;19927;-78
2022/11/29 00:30:33;;;;;;;;;;;-1.40;99.90;;;;;;5067914;28;19904;-78
2022/11/29 00:32:59;;;;;;;;;;;-1.50;99.90;;;;;;5069601;28;19931;-78
2022/11/29 00:35:24;;;;;;;;;;;-1.50;99.90;;;;;;5068260;28;19943;-78
2022/11/29 00:37:50;;;;;;;;;;;-1.60;99.90;;;;;;5069625;28;19982;-77
2022/11/29 00:40:15;;;;;;;;;;;-1.70;99.90;;;;;;5069192;28;20731;-78
2022/11/29 00:42:41;;;;;;;;;;;-1.70;99.90;;;;;;5068510;28;19966;-78
2022/11/29 00:45:06;;;;;;;;;;;-1.70;99.90;;;;;;5068647;28;19908;-77
2022/11/29 00:47:32;;;;;;;;;;;-1.80;99.90;;;;;;5069921;28;20011;-78
2022/11/29 00:49:57;;;;;;;;;;;-1.80;99.90;;;;;;5069858;28;20114;-78
2022/11/29 00:52:23;;;;;;;;;;;-1.80;99.90;;;;;;5069196;28;19908;-78
2022/11/29 00:54:48;;;;;;;;;;;-1.80;99.90;;;;;;5068073;28;19999;-78
2022/11/29 00:57:14;;;;;;;;;;;-1.90;99.90;;;;;;5068044;28;19915;-78
2022/11/29 00:59:39;;;;;;;;;;;-1.90;99.90;;;;;;5068240;28;19904;-78
2022/11/29 01:02:05;;;;;;;;;;;-2.00;99.90;;;;;;5067959;28;20467;-77
2022/11/29 01:04:30;;;;;;;;;;;-2.00;99.90;;;;;;5067689;28;19965;-77
2022/11/29 01:06:56;;;;;;;;;;;-2.00;99.90;;;;;;5068367;28;19923;-77
2022/11/29 01:09:21;;;;;;;;;;;-1.90;99.90;;;;;;5070387;28;19934;-78
2022/11/29 01:11:48;;;;;;;;;;;-1.90;99.90;;;;;;5069736;28;19908;-78
2022/11/29 01:14:13;;;;;;;;;;;-1.90;99.90;;;;;;5067426;28;19948;-78
2022/11/29 01:16:39;;;;;;;;;;;-1.90;99.90;;;;;;5067644;28;20360;-78
2022/11/29 01:19:06;;;;;;;;;;;-1.90;99.90;;;;;;5067030;28;20460;-77
2022/11/29 01:21:31;;;;;;;;;;;-1.80;99.90;;;;;;5067919;28;20387;-77
2022/11/29 01:23:58;;;;;;;;;;;-1.80;99.90;;;;;;5067745;28;19909;-77
2022/11/29 01:26:25;;;;;;;;;;;-1.80;99.90;;;;;;5066047;28;19922;-78
2022/11/29 01:28:51;;;;;;;;;;;-1.80;99.90;;;;;;5065864;28;19944;-78
2022/11/29 01:31:18;;;;;;;;;;;-1.80;99.90;;;;;;5066661;28;19905;-77
2022/11/29 01:33:44;;;;;;;;;;;-1.80;99.90;;;;;;5066066;28;20371;-78
2022/11/29 01:36:11;;;;;;;;;;;-1.80;99.90;;;;;;5067585;28;19908;-78
2022/11/29 01:38:37;;;;;;;;;;;-1.80;99.90;;;;;;5067672;28;19909;-78
2022/11/29 01:41:07;;;;;;;;;;;-1.80;99.90;;;;;;5065879;28;19914;-78
2022/11/29 01:43:32;;;;;;;;;;;-1.80;99.90;;;;;;5067853;28;20475;-77
2022/11/29 01:45:58;;;;;;;;;;;-1.90;99.90;;;;;;5065798;28;19908;-77
2022/11/29 01:48:26;;;;;;;;;;;-1.90;99.90;;;;;;5065345;28;20303;-78
2022/11/29 01:50:52;;;;;;;;;;;-1.90;99.90;;;;;;5065267;28;20642;-77
2022/11/29 01:53:19;;;;;;;;;;;-1.90;99.90;;;;;;5067428;28;19957;-78
2022/11/29 01:55:46;;;;;;;;;;;-1.90;99.90;;;;;;5067635;28;19904;-78
2022/11/29 01:58:11;;;;;;;;;;;-1.90;99.90;;;;;;5066543;28;20493;-77
2022/11/29 02:00:37;;;;;;;;;;;-1.90;99.90;;;;;;5067760;28;19908;-77
2022/11/29 02:03:07;;;;;;;;;;;-1.80;99.90;;;;;;5067002;28;19908;-79
2022/11/29 02:05:33;;;;;;;;;;;-1.80;99.90;;;;;;5067178;28;19915;-77
2022/11/29 02:07:59;;;;;;;;;;;-1.80;99.90;;;;;;5067536;28;20300;-78
2022/11/29 02:10:38;;;;;;;;;;;-1.80;99.90;;;;;;5066168;28;19996;-78
2022/11/29 02:13:22;;;;;;;;;;;-1.80;99.90;;;;;;5065056;28;19946;-78
2022/11/29 02:16:10;;;;;;;;;;;-1.80;99.90;;;;;;5067689;28;20434;-78
2022/11/29 02:18:35;;;;;;;;;;;-1.90;99.90;;;;;;5067195;28;19905;-77
2022/11/29 02:21:19;;;;;;;;;;;-2.00;99.90;;;;;;5065541;28;20289;-78
2022/11/29 02:23:48;;;;;;;;;;;-2.00;99.90;;;;;;5066103;28;19908;-78
2022/11/29 02:26:32;;;;;;;;;;;-2.00;99.90;;;;;;5067999;28;19921;-78
2022/11/29 02:29:19;;;;;;;;;;;-2.10;99.90;;;;;;5066368;28;20364;-77
2022/11/29 02:31:56;;;;;;;;;;;-2.20;99.90;;;;;;5065540;28;20003;-78
2022/11/29 02:34:40;;;;;;;;;;;-2.20;99.90;;;;;;5066030;28;19908;-78
2022/11/29 02:37:16;;;;;;;;;;;-2.30;99.90;;;;;;5067341;28;19911;-77
2022/11/29 02:39:41;;;;;;;;;;;-2.30;99.90;;;;;;5065956;28;19973;-78
2022/11/29 02:42:25;;;;;;;;;;;-2.40;99.90;;;;;;5067740;28;20471;-78
2022/11/29 02:45:12;;;;;;;;;;;-2.40;99.90;;;;;;5066194;28;19927;-78
2022/11/29 02:47:52;;;;;;;;;;;-2.40;99.90;;;;;;5067097;28;20399;-78
2022/11/29 02:50:23;;;;;;;;;;;-2.40;99.90;;;;;;5067205;28;20430;-78
2022/11/29 02:53:01;;;;;;;;;;;-2.50;99.90;;;;;;5066125;28;19936;-78
2022/11/29 02:55:27;;;;;;;;;;;-2.50;99.90;;;;;;5065976;28;19958;-78
2022/11/29 02:58:11;;;;;;;;;;;-2.60;99.90;;;;;;5067251;28;19908;-78
2022/11/29 03:00:40;;;;;;;;;;;-2.50;99.90;;;;;;5065854;28;19948;-78
2022/11/29 03:03:14;;;;;;;;;;;-2.60;99.90;;;;;;5067667;28;19911;-77
2022/11/29 03:05:43;;;;;;;;;;;-2.60;99.90;;;;;;5070888;28;20334;-78
2022/11/29 03:08:27;;;;;;;;;;;-2.70;99.90;;;;;;5070280;28;19921;-78
2022/11/29 03:11:15;;;;;;;;;;;-2.70;99.90;;;;;;5070443;28;19931;-77
2022/11/29 03:13:48;;;;;;;;;;;-2.70;99.90;;;;;;5069511;28;19961;-77
2022/11/29 03:16:32;;;;;;;;;;;-2.80;99.90;;;;;;5069694;28;20011;-77
2022/11/29 03:19:19;;;;;;;;;;;-2.80;99.90;;;;;;5068663;28;19904;-77
2022/11/29 03:21:58;;;;;;;;;;;-2.80;99.90;;;;;;5069281;28;19908;-77
2022/11/29 03:24:31;;;;;;;;;;;-2.80;99.90;;;;;;5070777;28;19908;-78
2022/11/29 03:27:08;;;;;;;;;;;-2.80;99.90;;;;;;5068846;28;19916;-77
2022/11/29 03:29:45;;;;;;;;;;;-2.80;99.90;;;;;;5068040;28;20323;-78
2022/11/29 03:32:21;;;;;;;;;;;-2.90;99.90;;;;;;5069275;28;19908;-77
2022/11/29 03:34:50;;;;;;;;;;;-2.90;99.90;;;;;;5071096;28;19970;-78
2022/11/29 03:37:28;;;;;;;;;;;-2.90;99.90;;;;;;5068503;28;20012;-78
2022/11/29 03:40:08;;;;;;;;;;;-2.90;99.90;;;;;;5068594;28;19908;-78
2022/11/29 03:42:33;;;;;;;;;;;-2.90;99.90;;;;;;5069228;28;19912;-78
2022/11/29 03:45:22;;;;;;;;;;;-2.90;99.90;;;;;;5068081;28;19912;-78
2022/11/29 03:47:51;;;;;;;;;;;-2.90;99.90;;;;;;5067736;28;19986;-78
2022/11/29 03:50:22;;;;;;;;;;;-2.90;99.90;;;;;;5068339;28;19951;-78
2022/11/29 03:52:47;;;;;;;;;;;-2.90;99.90;;;;;;5067340;28;20604;-78
2022/11/29 03:55:13;;;;;;;;;;;-2.90;99.90;;;;;;5068192;28;19951;-78
2022/11/29 03:57:57;;;;;;;;;;;-2.90;99.90;;;;;;5068208;28;19908;-77
2022/11/29 04:00:23;;;;;;;;;;;-2.90;99.90;;;;;;5069969;28;19904;-78
2022/11/29 04:03:08;;;;;;;;;;;-2.80;99.90;;;;;;5068689;28;19998;-78
2022/11/29 04:05:56;;;;;;;;;;;-2.80;99.90;;;;;;5068875;28;19908;-77
2022/11/29 04:08:31;;;;;;;;;;;-2.90;99.90;;;;;;5067304;28;19916;-78
2022/11/29 04:11:13;;;;;;;;;;;-2.90;99.90;;;;;;5069325;28;19904;-77
2022/11/29 04:13:44;;;;;;;;;;;-2.90;99.90;;;;;;5066859;28;19970;-78
2022/11/29 04:16:19;;;;;;;;;;;-2.90;99.90;;;;;;5067662;28;19908;-79
2022/11/29 04:18:50;;;;;;;;;;;-2.80;99.90;;;;;;5068356;28;19908;-77
2022/11/29 04:21:22;;;;;;;;;;;-2.80;99.90;;;;;;5068852;28;19914;-78
2022/11/29 04:23:56;;;;;;;;;;;-2.80;99.90;;;;;;5069246;28;19905;-78
2022/11/29 04:26:40;;;;;;;;;;;-2.80;99.90;;;;;;5068089;28;19916;-78
2022/11/29 04:29:10;;;;;;;;;;;-2.80;99.90;;;;;;5067601;28;19909;-77
2022/11/29 04:31:58;;;;;;;;;;;-2.70;99.90;;;;;;5068429;28;20482;-77
2022/11/29 04:34:24;;;;;;;;;;;-2.70;99.90;;;;;;5067106;28;19952;-78
2022/11/29 04:36:52;;;;;;;;;;;-2.70;99.90;;;;;;5067630;28;19997;-77
2022/11/29 04:39:36;;;;;;;;;;;-2.70;99.90;;;;;;5069028;28;19908;-77
2022/11/29 04:42:21;;;;;;;;;;;-2.70;99.90;;;;;;5067527;28;19939;-77
2022/11/29 04:44:49;;;;;;;;;;;-2.70;99.90;;;;;;5067535;28;20465;-78
2022/11/29 04:47:34;;;;;;;;;;;-2.80;99.90;;;;;;5066519;28;19960;-78
2022/11/29 04:50:14;;;;;;;;;;;-2.80;99.90;;;;;;5067596;28;19962;-77
2022/11/29 04:52:58;;;;;;;;;;;-2.80;99.90;;;;;;5067832;28;19916;-78
2022/11/29 04:55:42;;;;;;;;;;;-2.90;99.90;;;;;;5067386;28;19916;-78
2022/11/29 04:58:17;;;;;;;;;;;-2.90;99.90;;;;;;5067351;28;19917;-78
2022/11/29 05:01:02;;;;;;;;;;;-2.90;99.90;;;;;;5067856;28;19909;-78
2022/11/29 05:03:37;;;;;;;;;;;-3.00;99.90;;;;;;5065807;28;19955;-78
2022/11/29 05:06:22;;;;;;;;;;;-3.00;99.90;;;;;;5068081;28;20006;-78
2022/11/29 05:08:50;;;;;;;;;;;-3.20;99.90;;;;;;5066455;28;19909;-78
2022/11/29 05:11:34;;;;;;;;;;;-3.30;99.90;;;;;;5068420;28;20266;-78
2022/11/29 05:14:18;;;;;;;;;;;-3.30;99.90;;;;;;5067006;28;19904;-77
2022/11/29 05:16:47;;;;;;;;;;;-3.30;99.90;;;;;;5066745;28;19912;-78
2022/11/29 05:19:18;;;;;;;;;;;-3.30;99.90;;;;;;5066473;28;19909;-77
2022/11/29 05:21:44;;;;;;;;;;;-3.30;99.90;;;;;;5066952;28;19908;-77
2022/11/29 05:24:09;;;;;;;;;;;-3.30;99.90;;;;;;5067913;28;19914;-78
2022/11/29 05:26:39;;;;;;;;;;;-3.20;99.90;;;;;;5066936;28;19923;-78
2022/11/29 05:29:09;;;;;;;;;;;-3.20;99.90;;;;;;5067907;28;19908;-78
2022/11/29 05:31:53;;;;;;;;;;;-3.20;99.90;;;;;;5067527;28;19924;-78
2022/11/29 05:34:32;;;;;;;;;;;-3.20;99.90;;;;;;5066479;28;19962;-78
2022/11/29 05:37:13;;;;;;;;;;;-3.30;99.90;;;;;;5066482;28;20270;-78
2022/11/29 05:39:44;;;;;;;;;;;-3.30;99.90;;;;;;5066263;28;20059;-76
2022/11/29 05:42:10;;;;;;;;;;;-3.30;99.90;;;;;;5068372;28;20128;-78
2022/11/29 05:44:37;;;;;;;;;;;-3.30;99.90;;;;;;5067465;28;19924;-78
2022/11/29 05:47:04;;;;;;;;;;;-3.40;99.90;;;;;;5065793;28;19917;-77
2022/11/29 05:49:48;;;;;;;;;;;-3.40;99.90;;;;;;5068128;28;20346;-77
2022/11/29 05:52:19;;;;;;;;;;;-3.50;99.90;;;;;;5068024;28;20233;-77
2022/11/29 05:55:05;;;;;;;;;;;-3.50;99.90;;;;;;5067696;28;19908;-79
2022/11/29 05:57:37;;;;;;;;;;;-3.50;99.90;;;;;;5067877;28;20384;-78
2022/11/29 06:00:04;;;;;;;;;;;-3.50;99.90;;;;;;5067260;28;19908;-77
2022/11/29 06:02:44;;;;;;;;;;;-3.50;99.90;;;;;;5066108;28;19914;-78
2022/11/29 06:05:24;;;;;;;;;;;-3.50;99.90;;;;;;5065240;28;19904;-77
2022/11/29 06:07:52;;;;;;;;;;;-3.50;99.90;;;;;;5065768;28;20359;-78
2022/11/29 06:10:19;;;;;;;;;;;-3.40;99.90;;;;;;5065900;28;19912;-76
2022/11/29 06:12:59;;;;;;;;;;;-3.40;99.90;;;;;;5066836;28;19976;-77
2022/11/29 06:15:39;;;;;;;;;;;-3.40;99.90;;;;;;5067995;28;19908;-78
2022/11/29 06:18:05;;;;;;;;;;;-3.40;99.90;;;;;;5065267;28;19912;-77
2022/11/29 06:20:33;;;;;;;;;;;-3.40;99.90;;;;;;5067266;28;19916;-77
2022/11/29 06:23:11;;;;;;;;;;;-3.40;99.90;;;;;;5066871;28;19908;-78
2022/11/29 06:25:38;;;;;;;;;;;-3.30;99.90;;;;;;5065405;28;19954;-78
2022/11/29 06:28:17;;;;;;;;;;;-3.30;99.90;;;;;;5066052;28;19924;-78
2022/11/29 06:31:01;;;;;;;;;;;-3.30;99.90;;;;;;5065741;28;20015;-77
2022/11/29 06:33:38;;;;;;;;;;;-3.30;99.90;;;;;;5066095;28;19909;-78
2022/11/29 06:36:10;;;;;;;;;;;-3.30;99.90;;;;;;5065418;28;19954;-77
2022/11/29 06:38:36;;;;;;;;;;;-3.30;99.90;;;;;;5070410;28;19909;-78
2022/11/29 06:41:01;;;;;;;;;;;-3.20;99.90;;;;;;5070837;28;19950;-78
2022/11/29 06:43:27;;;;;;;;;;;-3.10;99.90;;;;;;5071422;28;19920;-78
2022/11/29 06:45:55;;;;;;;;;;;-3.10;99.90;;;;;;5069224;28;20087;-78
2022/11/29 06:48:25;;;;;;;;;;;-3.00;99.90;;;;;;5071420;28;20030;-78
2022/11/29 06:51:10;;;;;;;;;;;-3.00;99.90;;;;;;5069459;28;19932;-78
2022/11/29 06:53:54;;;;;;;;;;;-2.90;99.90;;;;;;5070186;28;19915;-79
2022/11/29 06:56:25;;;;;;;;;;;-2.70;99.90;;;;;;5070623;28;19973;-78
2022/11/29 06:58:57;;;;;;;;;;;-2.30;99.90;;;;;;5068720;28;20244;-79
2022/11/29 07:01:29;;;;;;;;;;;-1.90;99.90;;;;;;5069965;28;19912;-78
2022/11/29 07:04:14;;;;;;;;;;;-1.60;99.90;;;;;;5070045;28;19927;-77
2022/11/29 07:06:40;;;;;;;;;;;-1.30;99.90;;;;;;5069854;28;20612;-78
2022/11/29 07:09:13;;;;;;;;;;;-1.00;99.90;;;;;;5070976;28;19955;-78
2022/11/29 07:11:39;;;;;;;;;;;-0.80;99.90;;;;;;5071707;28;20367;-77
2022/11/29 07:14:05;;;;;;;;;;;-0.70;99.90;;;;;;5070116;28;19991;-77
2022/11/29 07:16:35;;;;;;;;;;;-0.60;99.90;;;;;;5069759;28;19915;-77
2022/11/29 07:19:23;;;;;;;;;;;-0.50;99.90;;;;;;5071697;28;19908;-77
2022/11/29 07:21:56;;;;;;;;;;;-0.40;99.90;;;;;;5069867;28;19912;-77
2022/11/29 07:24:31;;;;;;;;;;;-0.20;99.90;;;;;;5070234;28;19909;-78
2022/11/29 07:27:17;;;;;;;;;;;-0.20;99.90;;;;;;5070502;28;20396;-77
2022/11/29 07:29:59;;;;;;;;;;;-0.20;99.90;;;;;;5069451;28;20406;-78
2022/11/29 07:32:40;;;;;;;;;;;-0.10;99.90;;;;;;5071052;28;19958;-77
2022/11/29 07:35:11;;;;;;;;;;;0.10;99.90;;;;;;5071430;28;20389;-78
2022/11/29 07:37:43;;;;;;;;;;;0.20;99.90;;;;;;5069898;28;19908;-78
2022/11/29 07:40:21;;;;;;;;;;;0.50;99.90;;;;;;5071397;28;19908;-77
2022/11/29 07:42:49;;;;;;;;;;;0.90;99.90;;;;;;5072370;28;20373;-77
2022/11/29 07:45:26;;;;;;;;;;;1.40;99.90;;;;;;5071341;28;19908;-78
2022/11/29 07:47:51;;;;;;;;;;;1.70;99.90;;;;;;5072486;28;19934;-78
2022/11/29 07:50:17;;;;;;;;;;;2.00;99.90;;;;;;5071818;28;19912;-78
2022/11/29 07:52:43;;;;;;;;;;;2.30;99.90;;;;;;5072418;28;19912;-78
2022/11/29 07:55:12;;;;;;;;;;;2.50;99.90;;;;;;5071939;28;20339;-77
2022/11/29 07:57:38;;;;;;;;;;;2.70;99.90;;;;;;5072986;28;20406;-78
2022/11/29 08:00:04;;;;;;;;;;;2.90;99.90;;;;;;5072203;28;19994;-78
2022/11/29 08:02:33;;;;;;;;;;;2.90;99.90;;;;;;5071226;28;20006;-78
2022/11/29 08:05:00;;;;;;;;;;;3.00;99.90;;;;;;5069360;28;20031;-78
2022/11/29 08:07:26;;;;;;;;;;;3.20;99.90;;;;;;5071714;28;19917;-78
2022/11/29 08:09:51;;;;;;;;;;;3.40;99.90;;;;;;5072179;28;19910;-78
2022/11/29 08:12:17;;;;;;;;;;;3.70;99.90;;;;;;5073823;28;20011;-78
2022/11/29 08:14:42;;;;;;;;;;;4.20;99.90;;;;;;5072604;28;19991;-79
2022/11/29 08:17:08;;;;;;;;;;;4.40;99.90;;;;;;5074839;28;19908;-77
2022/11/29 08:19:33;;;;;;;;;;;4.70;99.90;;;;;;5074717;28;19990;-77
2022/11/29 08:21:59;;;;;;;;;;;5.20;99.90;;;;;;5071415;28;20388;-78
2022/11/29 08:24:25;;;;;;;;;;;5.50;99.90;;;;;;5073223;28;19911;-77
2022/11/29 08:26:51;;;;;;;;;;;5.90;99.90;;;;;;5070120;28;19915;-77
2022/11/29 08:29:16;;;;;;;;;;;6.20;99.90;;;;;;5068659;28;20381;-77
2022/11/29 08:31:42;;;;;;;;;;;6.60;99.90;;;;;;5067147;28;20323;-77
2022/11/29 08:34:09;;;;;;;;;;;6.70;99.90;;;;;;5067330;28;19905;-77
2022/11/29 08:36:35;;;;;;;;;;;6.70;99.90;;;;;;5067042;28;19912;-77
2022/11/29 08:39:01;;;;;;;;;;;6.50;99.90;;;;;;5066582;28;19999;-77
2022/11/29 08:41:27;;;;;;;;;;;6.30;99.90;;;;;;5068890;28;19908;-78
2022/11/29 08:43:53;;;;;;;;;;;6.10;99.90;;;;;;5065386;28;19928;-77
2022/11/29 08:46:19;;;;;;;;;;;5.80;99.90;;;;;;5067557;28;19912;-77
2022/11/29 08:48:45;;;;;;;;;;;5.50;99.90;;;;;;5068314;28;20273;-77
2022/11/29 08:51:11;;;;;;;;;;;5.30;99.90;;;;;;5069712;28;20368;-76
2022/11/29 08:53:42;;;;;;;;;;;5.10;99.90;;;;;;5069388;28;19904;-76
2022/11/29 08:56:09;;;;;;;;;;;4.90;99.90;;;;;;5069396;28;19937;-77
2022/11/29 08:58:34;;;;;;;;;;;4.70;99.90;;;;;;5067591;28;20372;-76
2022/11/29 09:01:00;;;;;;;;;;;4.50;99.90;;;;;;5067223;28;19938;-77
2022/11/29 09:06:11;;;;;;;;;;;4.40;99.90;;;;;;5068716;28;19915;-77
2022/11/29 09:08:37;;;;;;;;;;;4.40;99.90;;;;;;5067279;28;20462;-77
2022/11/29 09:11:06;;;;;;;;;;;4.40;99.90;;;;;;5068027;28;19909;-77
2022/11/29 09:13:32;;;;;;;;;;;4.30;99.90;;;;;;5067957;28;19999;-77
2022/11/29 09:15:57;;;;;;;;;;;4.20;99.90;;;;;;5066359;28;20012;-77
2022/11/29 09:18:23;;;;;;;;;;;4.20;99.90;;;;;;5066092;28;19904;-76
2022/11/29 09:20:48;;;;;;;;;;;4.20;99.90;;;;;;5066752;28;20694;-76
2022/11/29 09:23:14;;;;;;;;;;;4.20;99.90;;;;;;5067660;28;19998;-77
2022/11/29 09:25:40;;;;;;;;;;;4.20;99.90;;;;;;5068518;28;19935;-77
2022/11/29 09:28:06;;;;;;;;;;;4.20;99.90;;;;;;5067775;28;19920;-76
2022/11/29 09:30:33;;;;;;;;;;;4.20;99.90;;;;;;5066667;28;19908;-77
2022/11/29 09:33:01;;;;;;;;;;;4.20;99.90;;;;;;5066993;28;20261;-77
2022/11/29 09:35:27;;;;;;;;;;;4.20;99.90;;;;;;5069321;28;19911;-77
2022/11/29 09:37:53;;;;;;;;;;;4.20;99.90;;;;;;5068050;28;20037;-76
2022/11/29 09:40:19;;;;;;;;;;;4.40;99.90;;;;;;5069008;28;20007;-77
2022/11/29 09:42:45;;;;;;;;;;;4.30;99.90;;;;;;5066267;28;20517;-77
2022/11/29 09:45:17;;;;;;;;;;;4.20;99.90;;;;;;5069597;28;19920;-77
2022/11/29 09:48:01;;;;;;;;;;;4.20;99.90;;;;;;5067591;28;19962;-77
2022/11/29 09:50:34;;;;;;;;;;;4.20;99.90;;;;;;5069544;28;19908;-77
2022/11/29 09:53:02;;;;;;;;;;;4.30;99.90;;;;;;5069377;28;19916;-77
2022/11/29 09:55:31;;;;;;;;;;;4.40;99.90;;;;;;5068583;28;19930;-77
2022/11/29 09:57:58;;;;;;;;;;;4.40;99.90;;;;;;5069732;28;19916;-78
2022/11/29 10:00:24;;;;;;;;;;;4.40;99.90;;;;;;5069223;28;19905;-77
2022/11/29 10:02:57;;;;;;;;;;;4.50;99.90;;;;;;5068383;28;19967;-77
2022/11/29 10:05:27;;;;;;;;;;;4.40;99.90;;;;;;5069259;28;20364;-78
2022/11/29 10:07:59;;;;;;;;;;;4.50;99.90;;;;;;5065150;28;19923;-78
2022/11/29 10:10:28;;;;;;;;;;;4.50;99.90;;;;;;5069205;28;19905;-78
2022/11/29 10:12:57;;;;;;;;;;;4.50;99.90;;;;;;5067789;28;19999;-78
2022/11/29 10:15:26;;;;;;;;;;;4.50;99.90;;;;;;5068345;28;19908;-78
2022/11/29 10:18:03;;;;;;;;;;;4.50;99.90;;;;;;5068626;28;19904;-78
2022/11/29 10:20:32;;;;;;;;;;;4.40;99.90;;;;;;5070282;28;19998;-78
2022/11/29 10:23:13;;;;;;;;;;;4.50;99.90;;;;;;5068529;28;19932;-77
2022/11/29 10:25:44;;;;;;;;;;;4.40;99.90;;;;;;5069606;28;19908;-78
2022/11/29 10:28:12;;;;;;;;;;;4.30;99.90;;;;;;5069600;28;19920;-78
2022/11/29 10:30:38;;;;;;;;;;;4.30;99.90;;;;;;5070915;28;19943;-79
2022/11/29 10:33:09;;;;;;;;;;;4.30;99.90;;;;;;5068633;28;19916;-76
2022/11/29 10:35:35;;;;;;;;;;;4.20;99.90;;;;;;5070224;28;19908;-77
2022/11/29 10:38:02;;;;;;;;;;;4.30;99.90;;;;;;5070024;28;20008;-77
2022/11/29 10:40:31;;;;;;;;;;;4.20;99.90;;;;;;5069905;28;19912;-77
2022/11/29 10:42:56;;;;;;;;;;;4.30;99.90;;;;;;5067200;28;19908;-77
2022/11/29 10:45:44;;;;;;;;;;;4.20;99.90;;;;;;5067494;28;19916;-77
2022/11/29 10:48:11;;;;;;;;;;;4.10;99.90;;;;;;5069774;28;20447;-77
2022/11/29 10:50:38;;;;;;;;;;;4.10;99.90;;;;;;5070809;28;19908;-77
2022/11/29 10:53:30;;;;;;;;;;;4.00;99.90;;;;;;5066598;28;19912;-76
2022/11/29 10:56:07;;;;;;;;;;;4.00;99.90;;;;;;5065090;28;19997;-76
2022/11/29 10:58:34;;;;;;;;;;;3.90;99.90;;;;;;5066786;28;20005;-77
2022/11/29 11:01:01;;;;;;;;;;;3.90;99.90;;;;;;5066471;28;19919;-78
2022/11/29 11:03:32;;;;;;;;;;;3.90;99.90;;;;;;5066956;28;20031;-77
2022/11/29 11:06:03;;;;;;;;;;;3.90;99.90;;;;;;5067384;28;20007;-77
2022/11/29 11:08:29;;;;;;;;;;;4.00;99.90;;;;;;5065235;28;19958;-75
2022/11/29 11:10:55;;;;;;;;;;;4.00;99.90;;;;;;5066897;28;20063;-76
2022/11/29 11:13:25;;;;;;;;;;;4.00;99.90;;;;;;5066152;28;20346;-76
2022/11/29 11:15:55;;;;;;;;;;;4.10;99.90;;;;;;5067284;28;20407;-76
2022/11/29 11:18:22;;;;;;;;;;;4.10;99.90;;;;;;5066473;28;20442;-77
2022/11/29 11:20:52;;;;;;;;;;;4.20;99.90;;;;;;5066498;28;19920;-77
2022/11/29 11:23:25;;;;;;;;;;;4.20;99.90;;;;;;5067539;28;19909;-78
2022/11/29 11:25:57;;;;;;;;;;;4.10;99.90;;;;;;5070137;28;19908;-77
2022/11/29 11:28:25;;;;;;;;;;;4.10;99.90;;;;;;5069702;28;20379;-77
2022/11/29 11:30:50;;;;;;;;;;;4.00;99.90;;;;;;5070328;28;19912;-77
2022/11/29 11:33:18;;;;;;;;;;;4.20;99.90;;;;;;5070303;28;19908;-77
2022/11/29 11:35:59;;;;;;;;;;;4.10;99.90;;;;;;5070133;28;20007;-78
2022/11/29 11:38:24;;;;;;;;;;;4.20;99.90;;;;;;5071195;28;19944;-77
2022/11/29 11:40:59;;;;;;;;;;;4.20;99.90;;;;;;5070634;28;19932;-77
2022/11/29 11:43:24;;;;;;;;;;;4.30;99.90;;;;;;5069946;28;20003;-78
2022/11/29 11:45:51;;;;;;;;;;;4.20;99.90;;;;;;5070296;28;20006;-77
2022/11/29 11:48:18;;;;;;;;;;;4.50;99.90;;;;;;5069361;28;19912;-77
2022/11/29 11:50:55;;;;;;;;;;;4.50;99.90;;;;;;5069802;28;19908;-78
2022/11/29 11:53:22;;;;;;;;;;;4.60;99.90;;;;;;5070311;28;19905;-76
2022/11/29 11:56:01;;;;;;;;;;;4.60;99.90;;;;;;5069902;28;20356;-78
2022/11/29 11:58:31;;;;;;;;;;;4.70;99.90;;;;;;5069450;28;19908;-78
2022/11/29 12:01:13;;;;;;;;;;;4.70;99.90;;;;;;5070322;28;19912;-76
2022/11/29 12:03:57;;;;;;;;;;;4.70;99.90;;;;;;5069265;28;19915;-77
2022/11/29 12:06:23;;;;;;;;;;;4.80;99.90;;;;;;5068914;28;19946;-77
2022/11/29 12:08:49;;;;;;;;;;;4.80;99.90;;;;;;5070442;28;20005;-78
2022/11/29 12:11:17;;;;;;;;;;;4.90;99.90;;;;;;5069509;28;20542;-77
2022/11/29 12:13:45;;;;;;;;;;;5.00;99.90;;;;;;5071340;28;19904;-77
2022/11/29 12:16:15;;;;;;;;;;;5.00;99.90;;;;;;5070976;28;19915;-77
2022/11/29 12:18:43;;;;;;;;;;;5.00;99.90;;;;;;5071407;28;19991;-78
2022/11/29 12:21:15;;;;;;;;;;;5.10;99.90;;;;;;5069309;28;19914;-78
2022/11/29 12:23:48;;;;;;;;;;;5.10;99.90;;;;;;5070465;28;20168;-78
2022/11/29 12:26:25;;;;;;;;;;;5.30;99.90;;;;;;5071072;28;19908;-78
2022/11/29 12:28:51;;;;;;;;;;;5.30;99.90;;;;;;5071424;28;20019;-78
2022/11/29 12:31:20;;;;;;;;;;;5.40;99.90;;;;;;5069966;28;19915;-78
2022/11/29 12:33:54;;;;;;;;;;;5.40;99.90;;;;;;5070543;28;20506;-78
2022/11/29 12:36:24;;;;;;;;;;;5.40;99.90;;;;;;5070985;28;20454;-77
2022/11/29 12:38:50;;;;;;;;;;;5.40;99.90;;;;;;5070244;28;19912;-77
2022/11/29 12:41:21;;;;;;;;;;;5.40;99.90;;;;;;5072157;28;19908;-77
2022/11/29 12:44:05;;;;;;;;;;;5.50;99.90;;;;;;5069671;28;19959;-78
2022/11/29 12:46:31;;;;;;;;;;;5.40;99.90;;;;;;5070293;28;20388;-77
2022/11/29 12:49:03;;;;;;;;;;;5.40;99.90;;;;;;5071990;28;19908;-78
2022/11/29 12:51:31;;;;;;;;;;;5.30;99.90;;;;;;5071803;28;19911;-78
2022/11/29 12:54:10;;;;;;;;;;;5.30;99.90;;;;;;5071259;28;19924;-77
2022/11/29 12:56:39;;;;;;;;;;;5.30;99.90;;;;;;5070875;28;19915;-77
2022/11/29 12:59:11;;;;;;;;;;;5.30;99.90;;;;;;5071073;28;19912;-78
2022/11/29 13:01:52;;;;;;;;;;;5.20;99.90;;;;;;5072239;28;19914;-77
2022/11/29 13:04:28;;;;;;;;;;;5.20;99.90;;;;;;5071114;28;19985;-77
2022/11/29 13:06:54;;;;;;;;;;;5.20;99.90;;;;;;5072595;28;19967;-77
2022/11/29 13:09:26;;;;;;;;;;;5.20;99.90;;;;;;5071011;28;19951;-77
2022/11/29 13:11:51;;;;;;;;;;;5.20;99.90;;;;;;5073430;28;20022;-78
2022/11/29 13:14:35;;;;;;;;;;;5.10;99.90;;;;;;5074903;28;20399;-77
2022/11/29 13:17:02;;;;;;;;;;;5.10;99.90;;;;;;5068754;28;19904;-77
2022/11/29 13:19:31;;;;;;;;;;;5.10;99.90;;;;;;5069488;28;19912;-78
2022/11/29 13:22:08;;;;;;;;;;;5.10;99.90;;;;;;5069907;28;19909;-77
2022/11/29 13:24:41;;;;;;;;;;;5.00;99.90;;;;;;5069202;28;20011;-77
2022/11/29 13:27:12;;;;;;;;;;;4.90;99.90;;;;;;5067022;28;19948;-77
2022/11/29 13:29:38;;;;;;;;;;;4.90;99.90;;;;;;5068214;28;19916;-78
2022/11/29 13:32:05;;;;;;;;;;;5.00;99.90;;;;;;5068680;28;19908;-78
2022/11/29 13:34:35;;;;;;;;;;;4.80;99.90;;;;;;5066848;28;19912;-78
2022/11/29 13:37:03;;;;;;;;;;;4.80;99.90;;;;;;5067944;28;20385;-78
2022/11/29 13:39:31;;;;;;;;;;;4.70;99.90;;;;;;5068367;28;20288;-78
2022/11/29 13:42:11;;;;;;;;;;;4.70;99.90;;;;;;5068222;28;19934;-78
2022/11/29 13:44:37;;;;;;;;;;;4.70;99.90;;;;;;5066370;28;19924;-77
2022/11/29 13:47:09;;;;;;;;;;;4.60;99.90;;;;;;5067512;28;20411;-78
2022/11/29 13:49:47;;;;;;;;;;;4.50;99.90;;;;;;5067206;28;19908;-79
2022/11/29 13:52:26;;;;;;;;;;;4.50;99.90;;;;;;5064973;28;19986;-78
2022/11/29 13:55:08;;;;;;;;;;;4.40;99.90;;;;;;5068081;28;20717;-78
2022/11/29 13:57:48;;;;;;;;;;;4.40;99.90;;;;;;5068080;28;19915;-77
2022/11/29 14:00:33;;;;;;;;;;;4.30;99.90;;;;;;5068458;28;19904;-77
2022/11/29 14:03:17;;;;;;;;;;;4.20;99.90;;;;;;5068584;28;19940;-77
2022/11/29 14:05:44;;;;;;;;;;;4.20;99.90;;;;;;5067573;28;19947;-77
2022/11/29 14:08:26;;;;;;;;;;;4.10;99.90;;;;;;5068098;28;20457;-77
2022/11/29 14:10:56;;;;;;;;;;;4.00;99.90;;;;;;5068857;28;19904;-76
2022/11/29 14:13:25;;;;;;;;;;;4.00;99.90;;;;;;5067910;28;19915;-76
2022/11/29 14:15:56;;;;;;;;;;;3.90;99.90;;;;;;5067337;28;19912;-76
2022/11/29 14:18:36;;;;;;;;;;;3.80;99.90;;;;;;5069249;28;19904;-76
2022/11/29 14:21:02;;;;;;;;;;;3.80;99.90;;;;;;5067529;28;19916;-77
2022/11/29 14:23:30;;;;;;;;;;;3.70;99.90;;;;;;5068070;28;20397;-76
2022/11/29 14:25:55;;;;;;;;;;;3.60;99.90;;;;;;5067742;28;19927;-77
2022/11/29 14:28:21;;;;;;;;;;;3.50;99.90;;;;;;5069609;28;20339;-77
2022/11/29 14:30:47;;;;;;;;;;;3.60;99.90;;;;;;5070050;28;19908;-77
2022/11/29 14:33:31;;;;;;;;;;;3.60;99.90;;;;;;5069350;28;19908;-77
2022/11/29 14:36:10;;;;;;;;;;;3.40;99.90;;;;;;5070782;28;20042;-77
2022/11/29 14:38:54;;;;;;;;;;;3.30;99.90;;;;;;5070888;28;20377;-76
2022/11/29 14:41:31;;;;;;;;;;;3.30;99.90;;;;;;5068682;28;19908;-77
2022/11/29 14:44:24;;;;;;;;;;;3.20;99.90;;;;;;5069305;28;20040;-77
2022/11/29 14:47:08;;;;;;;;;;;3.20;99.90;;;;;;5069991;28;19920;-77
2022/11/29 14:49:39;;;;;;;;;;;3.10;99.90;;;;;;5071577;28;20424;-76
2022/11/29 14:52:04;;;;;;;;;;;3.00;99.90;;;;;;5068432;28;20384;-77